createdAt,value
2018-07-16T00:01:51.840Z,99899.91
2018-07-16T00:04:24.704Z,99902.73
2018-07-16T00:06:58.631Z,99904.45
2018-07-16T00:09:32.789Z,99900.91
2018-07-16T00:12:07.236Z,99900.96
2018-07-16T00:14:41.427Z,99897.88
2018-07-16T00:17:13.925Z,99902.08
2018-07-16T00:19:47.190Z,99896.51
2018-07-16T00:22:20.092Z,99891.56
2018-07-16T00:24:52.641Z,99890.33
2018-07-16T00:27:25.180Z,99886.02
2018-07-16T00:29:57.986Z,99882.11
2018-07-16T00:32:31.162Z,99884.80
2018-07-16T00:35:04.669Z,99883.94
2018-07-16T00:37:40.003Z,99885.13
2018-07-16T00:40:13.988Z,99882.16
2018-07-16T00:42:48.315Z,99888.00
2018-07-16T00:45:21.514Z,99886.66
2018-07-16T00:47:54.241Z,99882.02
2018-07-16T00:50:29.690Z,99877.16
2018-07-16T00:53:02.693Z,99870.69
2018-07-16T00:55:35.874Z,99868.93
2018-07-16T00:58:08.337Z,99871.93
2018-07-16T01:00:42.314Z,99868.00
2018-07-16T01:03:15.456Z,99863.23
2018-07-16T01:05:47.871Z,99862.64
2018-07-16T01:08:20.658Z,99862.23
2018-07-16T01:10:53.907Z,99861.94
2018-07-16T01:13:26.470Z,99856.34
2018-07-16T01:15:59.471Z,99857.29
2018-07-16T01:18:32.231Z,99854.77
2018-07-16T01:21:05.077Z,99853.56
2018-07-16T01:23:41.741Z,99851.31
2018-07-16T01:26:17.137Z,99850.81
2018-07-16T01:28:49.670Z,99850.98
2018-07-16T01:31:22.280Z,99852.09
2018-07-16T01:33:55.049Z,99848.12
2018-07-16T01:36:27.602Z,99845.79
2018-07-16T01:39:00.493Z,99852.21
2018-07-16T01:41:33.478Z,99849.82
2018-07-16T01:44:05.876Z,99852.20
2018-07-16T01:46:38.325Z,99849.25
2018-07-16T01:49:11.197Z,99846.59
2018-07-16T01:51:43.715Z,99845.61
2018-07-16T01:54:16.389Z,99848.56
2018-07-16T01:56:52.227Z,99844.09
2018-07-16T01:59:25.720Z,99841.72
2018-07-16T02:01:59.796Z,99835.19
2018-07-16T02:04:32.778Z,99838.95
2018-07-16T02:07:05.334Z,99832.95
2018-07-16T02:09:37.932Z,99827.94
2018-07-16T02:12:14.009Z,99826.89
2018-07-16T02:14:48.532Z,99823.41
2018-07-16T02:17:21.515Z,99821.64
2018-07-16T02:19:57.037Z,99820.61
2018-07-16T02:22:29.624Z,99826.64
2018-07-16T02:25:02.479Z,99828.72
2018-07-16T02:27:36.409Z,99832.77
2018-07-16T02:30:08.932Z,99833.22
2018-07-16T02:32:41.358Z,99830.55
2018-07-16T02:35:14.303Z,99824.02
2018-07-16T02:37:46.983Z,99829.54
2018-07-16T02:40:19.696Z,99825.36
2018-07-16T02:42:53.561Z,99823.48
2018-07-16T02:45:27.216Z,99825.39
2018-07-16T02:47:59.948Z,99826.05
2018-07-16T02:50:34.016Z,99830.26
2018-07-16T02:53:07.187Z,99828.77
2018-07-16T02:55:39.609Z,99826.91
2018-07-16T02:58:14.588Z,99826.80
2018-07-16T03:00:47.169Z,99826.90
2018-07-16T03:03:20.127Z,99824.42
2018-07-16T03:05:52.948Z,99827.93
2018-07-16T03:08:25.545Z,99823.00
2018-07-16T03:10:59.591Z,99823.74
2018-07-16T03:13:38.392Z,99824.02
2018-07-16T03:16:11.050Z,99828.16
2018-07-16T03:18:44.433Z,99833.39
2018-07-16T03:21:17.234Z,99828.67
2018-07-16T03:23:49.797Z,99827.23
2018-07-16T03:26:22.324Z,99824.80
2018-07-16T03:28:55.428Z,99826.36
2018-07-16T03:31:29.349Z,99827.50
2018-07-16T03:34:01.781Z,99822.11
2018-07-16T03:36:34.722Z,99824.31
2018-07-16T03:39:09.576Z,99820.39
2018-07-16T03:41:42.416Z,99828.20
2018-07-16T03:44:15.168Z,99821.38
2018-07-16T03:46:47.724Z,99823.36
2018-07-16T03:49:20.308Z,99824.63
2018-07-16T03:51:52.976Z,99822.38
2018-07-16T03:54:26.462Z,99824.93
2018-07-16T03:56:58.845Z,99826.01
2018-07-16T03:59:32.608Z,99831.19
2018-07-16T04:02:06.275Z,99836.68
2018-07-16T04:04:39.977Z,99829.73
2018-07-16T04:07:12.846Z,99834.75
2018-07-16T04:09:46.351Z,99835.20
2018-07-16T04:12:18.816Z,99836.02
2018-07-16T04:14:53.436Z,99833.83
2018-07-16T04:17:25.911Z,99835.84
2018-07-16T04:19:58.621Z,99836.14
2018-07-16T04:22:31.506Z,99842.67
2018-07-16T04:25:04.324Z,99838.08
2018-07-16T04:27:36.629Z,99836.09
2018-07-16T04:30:14.705Z,99838.36
2018-07-16T04:32:47.175Z,99838.79
2018-07-16T04:35:21.124Z,99840.86
2018-07-16T04:37:54.424Z,99841.27
2018-07-16T04:40:26.846Z,99838.84
2018-07-16T04:43:01.011Z,99839.85
2018-07-16T04:45:34.048Z,99837.46
2018-07-16T04:48:08.672Z,99833.66
2018-07-16T04:50:46.166Z,99836.22
2018-07-16T04:53:19.080Z,99836.09
2018-07-16T04:55:53.052Z,99831.30
2018-07-16T04:58:25.918Z,99833.55
2018-07-16T05:01:03.680Z,99834.55
2018-07-16T05:03:36.152Z,99831.66
2018-07-16T05:06:08.734Z,99835.39
2018-07-16T05:08:42.529Z,99831.16
2018-07-16T05:11:15.086Z,99834.13
2018-07-16T05:13:47.799Z,99832.42
2018-07-16T05:16:21.241Z,99826.43
2018-07-16T05:18:54.858Z,99827.86
2018-07-16T05:21:27.208Z,99820.78
2018-07-16T05:24:01.379Z,99819.77
2018-07-16T05:26:34.094Z,99815.68
2018-07-16T05:29:06.546Z,99816.80
2018-07-16T05:31:40.454Z,99811.13
2018-07-16T05:34:12.972Z,99813.92
2018-07-16T05:36:45.387Z,99811.14
2018-07-16T05:39:18.164Z,99813.31
2018-07-16T05:41:50.980Z,99806.27
2018-07-16T05:44:23.832Z,99804.72
2018-07-16T05:46:56.677Z,99803.59
2018-07-16T05:49:29.752Z,99800.14
2018-07-16T05:52:02.207Z,99799.64
2018-07-16T05:54:35.049Z,99802.33
2018-07-16T05:57:07.757Z,99801.05
2018-07-16T05:59:40.333Z,99801.35
2018-07-16T06:02:14.397Z,99797.25
2018-07-16T06:04:47.879Z,99798.80
2018-07-16T06:07:20.411Z,99800.91
2018-07-16T06:09:53.335Z,99801.02
2018-07-16T06:12:25.966Z,99796.13
2018-07-16T06:14:58.519Z,99798.47
2018-07-16T06:17:31.264Z,99801.99
2018-07-16T06:20:09.372Z,99799.47
2018-07-16T06:22:41.981Z,99802.19
2018-07-16T06:25:15.922Z,99802.23
2018-07-16T06:27:49.283Z,99793.86
2018-07-16T06:30:22.070Z,99793.99
2018-07-16T06:32:56.526Z,99794.91
2018-07-16T06:35:28.996Z,99795.59
2018-07-16T06:38:01.385Z,99796.28
2018-07-16T06:40:34.119Z,99795.65
2018-07-16T06:43:06.709Z,99797.95
2018-07-16T06:45:39.545Z,99795.55
2018-07-16T06:48:13.113Z,99803.94
2018-07-16T06:50:45.526Z,99804.63
2018-07-16T06:53:18.380Z,99806.34
2018-07-16T06:55:53.296Z,99801.31
2018-07-16T06:58:26.355Z,99799.97
2018-07-16T07:00:58.929Z,99802.53
2018-07-16T07:03:31.873Z,99799.64
2018-07-16T07:06:05.477Z,99803.04
2018-07-16T07:08:38.322Z,99802.13
2018-07-16T07:11:12.359Z,99793.42
2018-07-16T07:13:46.291Z,99798.60
2018-07-16T07:16:22.102Z,99794.78
2018-07-16T07:18:54.466Z,99795.28
2018-07-16T07:21:27.428Z,99794.97
2018-07-16T07:24:00.521Z,99797.03
2018-07-16T07:26:34.598Z,99794.95
2018-07-16T07:29:09.568Z,99793.13
2018-07-16T07:31:45.683Z,99789.20
2018-07-16T07:34:21.014Z,99784.81
2018-07-16T07:37:03.246Z,99787.33
2018-07-16T07:39:35.856Z,99783.05
2018-07-16T07:42:09.966Z,99778.69
2018-07-16T07:44:44.598Z,99780.77
2018-07-16T07:47:17.301Z,99782.94
2018-07-16T07:49:51.893Z,99778.08
2018-07-16T07:52:25.377Z,99773.92
2018-07-16T07:54:57.989Z,99780.37
2018-07-16T07:57:30.937Z,99775.92
2018-07-16T08:00:11.229Z,99776.64
2018-07-16T08:02:48.840Z,99776.73
2018-07-16T08:05:29.853Z,99767.53
2018-07-16T08:08:07.079Z,99770.36
2018-07-16T08:10:42.767Z,99766.65
2018-07-16T08:13:19.439Z,99764.13
2018-07-16T08:15:53.220Z,99757.09
2018-07-16T08:18:35.681Z,99759.19
2018-07-16T08:21:19.672Z,99758.59
2018-07-16T08:24:04.773Z,99763.21
2018-07-16T08:26:38.588Z,99761.02
2018-07-16T08:29:14.754Z,99766.98
2018-07-16T08:31:48.404Z,99760.61
2018-07-16T08:34:25.704Z,99753.33
2018-07-16T08:37:03.446Z,99757.94
2018-07-16T08:39:36.514Z,99756.98
2018-07-16T08:42:09.505Z,99762.33
2018-07-16T08:44:46.312Z,99760.42
2018-07-16T08:47:19.304Z,99757.84
2018-07-16T08:49:56.637Z,99761.19
2018-07-16T08:52:30.412Z,99760.61
2018-07-16T08:55:04.118Z,99758.97
2018-07-16T08:57:40.226Z,99758.70
2018-07-16T09:00:15.221Z,99753.56
2018-07-16T09:02:53.621Z,99754.27
2018-07-16T09:05:30.336Z,99752.56
2018-07-16T09:08:05.101Z,99746.55
2018-07-16T09:10:43.525Z,99750.27
2018-07-16T09:13:21.046Z,99750.94
2018-07-16T09:15:54.685Z,99752.66
2018-07-16T09:18:34.011Z,99752.89
2018-07-16T09:21:12.584Z,99755.90
2018-07-16T09:23:50.752Z,99756.43
2018-07-16T09:26:34.248Z,99754.84
2018-07-16T09:29:08.326Z,99751.27
2018-07-16T09:31:42.478Z,99753.09
2018-07-16T09:34:17.417Z,99752.93
2018-07-16T09:36:53.479Z,99756.55
2018-07-16T09:39:27.328Z,99748.36
2018-07-16T09:42:01.109Z,99743.84
2018-07-16T09:44:36.073Z,99745.37
2018-07-16T09:47:13.080Z,99743.77
2018-07-16T09:49:46.722Z,99740.53
2018-07-16T09:52:19.373Z,99742.62
2018-07-16T09:54:52.912Z,99737.62
2018-07-16T09:57:27.259Z,99739.03
2018-07-16T10:00:00.129Z,99739.95
2018-07-16T10:02:36.334Z,99735.73
2018-07-16T10:05:10.047Z,99732.11
2018-07-16T10:07:42.593Z,99728.80
2018-07-16T10:10:17.028Z,99729.73
2018-07-16T10:12:50.119Z,99727.13
2018-07-16T10:15:24.802Z,99721.22
2018-07-16T10:17:57.973Z,99720.33
2018-07-16T10:20:30.605Z,99719.52
2018-07-16T10:23:13.230Z,99710.39
2018-07-16T10:25:45.952Z,99707.30
2018-07-16T10:28:25.207Z,99709.42
2018-07-16T10:30:57.707Z,99709.28
2018-07-16T10:33:31.369Z,99706.33
2018-07-16T10:36:04.495Z,99703.02
2018-07-16T10:38:40.002Z,99707.70
2018-07-16T10:41:13.800Z,99708.36
2018-07-16T10:43:47.207Z,99699.56
2018-07-16T10:46:19.928Z,99697.22
2018-07-16T10:48:52.488Z,99694.44
2018-07-16T10:51:25.848Z,99701.44
2018-07-16T10:53:59.769Z,99694.39
2018-07-16T10:56:32.350Z,99694.80
2018-07-16T10:59:08.533Z,99694.43
2018-07-16T11:01:41.337Z,99688.78
2018-07-16T11:04:20.373Z,99689.19
2018-07-16T11:06:54.268Z,99686.02
2018-07-16T11:09:29.119Z,99684.34
2018-07-16T11:12:05.010Z,99684.20
2018-07-16T11:14:39.260Z,99682.27
2018-07-16T11:17:12.349Z,99685.88
2018-07-16T11:19:49.101Z,99677.52
2018-07-16T11:22:22.884Z,99679.63
2018-07-16T11:24:58.627Z,99677.42
2018-07-16T11:27:33.830Z,99677.24
2018-07-16T11:30:10.167Z,99680.50
2018-07-16T11:32:53.529Z,99670.86
2018-07-16T11:35:26.307Z,99676.53
2018-07-16T11:37:59.164Z,99672.08
2018-07-16T11:40:36.967Z,99670.47
2018-07-16T11:43:11.502Z,99667.67
2018-07-16T11:45:47.338Z,99666.36
2018-07-16T11:48:29.560Z,99660.48
2018-07-16T11:51:07.846Z,99659.56
2018-07-16T11:53:44.875Z,99660.09
2018-07-16T11:56:19.660Z,99660.66
2018-07-16T11:58:53.035Z,99661.42
2018-07-16T12:01:26.744Z,99659.99
2018-07-16T12:03:59.984Z,99654.94
2018-07-16T12:06:32.575Z,99649.43
2018-07-16T12:09:07.091Z,99652.25
2018-07-16T12:11:39.716Z,99648.56
2018-07-16T12:14:12.477Z,99648.87
2018-07-16T12:16:46.645Z,99642.00
2018-07-16T12:19:19.244Z,99644.77
2018-07-16T12:21:56.428Z,99645.00
2018-07-16T12:24:29.290Z,99645.06
2018-07-16T12:27:05.757Z,99637.81
2018-07-16T12:29:41.089Z,99636.02
2018-07-16T12:32:18.333Z,99631.22
2018-07-16T12:34:57.195Z,99625.48
2018-07-16T12:37:32.624Z,99622.66
2018-07-16T12:40:24.892Z,99621.42
2018-07-16T12:43:06.185Z,99620.20
2018-07-16T12:45:39.822Z,99615.44
2018-07-16T12:48:13.246Z,99612.39
2018-07-16T12:50:50.870Z,99612.50
2018-07-16T12:53:24.781Z,99612.69
2018-07-16T12:55:59.172Z,99605.45
2018-07-16T12:58:35.325Z,99608.44
2018-07-16T13:01:09.378Z,99600.47
2018-07-16T13:03:45.053Z,99599.81
2018-07-16T13:06:24.124Z,99593.72
2018-07-16T13:08:58.549Z,99591.67
2018-07-16T13:11:32.245Z,99588.63
2018-07-16T13:14:04.724Z,99589.94
2018-07-16T13:16:40.444Z,99584.39
2018-07-16T13:19:14.837Z,99587.86
2018-07-16T13:21:50.894Z,99577.92
2018-07-16T13:24:25.318Z,99579.51
2018-07-16T13:26:58.880Z,99573.37
2018-07-16T13:29:32.246Z,99574.62
2018-07-16T13:32:06.725Z,99568.38
2018-07-16T13:34:40.068Z,99569.88
2018-07-16T13:37:15.745Z,99558.63
2018-07-16T13:39:49.825Z,99560.22
2018-07-16T13:42:28.346Z,99557.53
2018-07-16T13:45:04.001Z,99552.67
2018-07-16T13:47:38.965Z,99552.52
2018-07-16T13:50:11.998Z,99552.67
2018-07-16T13:52:45.433Z,99547.81
2018-07-16T13:55:18.229Z,99544.72
2018-07-16T13:57:52.072Z,99548.12
2018-07-16T14:00:25.444Z,99542.50
2018-07-16T14:02:58.588Z,99536.13
2018-07-16T14:05:32.484Z,99534.73
2018-07-16T14:08:05.301Z,99539.36
2018-07-16T14:10:39.485Z,99532.02
2018-07-16T14:13:12.073Z,99530.31
2018-07-16T14:15:45.445Z,99530.17
2018-07-16T14:18:20.041Z,99531.00
2018-07-16T14:20:53.844Z,99529.30
2018-07-16T14:23:28.735Z,99518.50
2018-07-16T14:26:01.352Z,99524.98
2018-07-16T14:28:35.497Z,99530.78
2018-07-16T14:31:09.355Z,99536.48
2018-07-16T14:33:43.001Z,99531.97
2018-07-16T14:36:18.791Z,99526.74
2018-07-16T14:38:53.269Z,99529.61
2018-07-16T14:41:26.869Z,99528.89
2018-07-16T14:43:59.913Z,99533.12
2018-07-16T14:46:34.095Z,99529.61
2018-07-16T14:49:17.525Z,99524.38
2018-07-16T14:51:51.897Z,99515.19
2018-07-16T14:54:26.249Z,99510.37
2018-07-16T14:56:58.831Z,99513.95
2018-07-16T14:59:33.479Z,99512.35
2018-07-16T15:02:09.229Z,99510.98
2018-07-16T15:04:43.825Z,99511.54
2018-07-16T15:07:18.449Z,99507.88
2018-07-16T15:09:51.316Z,99512.70
2018-07-16T15:12:25.089Z,99508.13
2018-07-16T15:14:59.994Z,99504.58
2018-07-16T15:17:38.794Z,99513.34
2018-07-16T15:20:12.577Z,99521.80
2018-07-16T15:22:46.825Z,99514.88
2018-07-16T15:25:20.487Z,99513.49
2018-07-16T15:27:56.341Z,99510.86
2018-07-16T15:30:30.233Z,99509.52
2018-07-16T15:33:05.125Z,99508.73
2018-07-16T15:35:39.098Z,99508.90
2018-07-16T15:38:18.589Z,99510.23
2018-07-16T15:40:52.285Z,99502.92
2018-07-16T15:43:26.098Z,99504.96
2018-07-16T15:45:59.068Z,99505.13
2018-07-16T15:48:33.887Z,99501.87
2018-07-16T15:51:09.597Z,99496.06
2018-07-16T15:53:42.404Z,99501.42
2018-07-16T15:56:14.965Z,99502.98
2018-07-16T15:58:48.012Z,99501.14
2018-07-16T16:01:21.601Z,99498.31
2018-07-16T16:03:57.061Z,99499.75
2018-07-16T16:06:30.960Z,99498.75
2018-07-16T16:09:05.900Z,99494.14
2018-07-16T16:11:38.493Z,99498.77
2018-07-16T16:14:11.612Z,99500.38
2018-07-16T16:16:46.012Z,99498.13
2018-07-16T16:19:21.585Z,99498.81
2018-07-16T16:21:55.219Z,99502.41
2018-07-16T16:24:29.509Z,99498.41
2018-07-16T16:27:07.281Z,99498.42
2018-07-16T16:29:42.512Z,99493.53
2018-07-16T16:32:16.392Z,99496.36
2018-07-16T16:34:54.118Z,99495.00
2018-07-16T16:37:47.178Z,99493.27
2018-07-16T16:40:21.721Z,99482.86
2018-07-16T16:42:55.525Z,99488.07
2018-07-16T16:45:36.035Z,99485.05
2018-07-16T16:48:09.707Z,99484.18
2018-07-16T16:50:47.751Z,99483.91
2018-07-16T16:53:21.392Z,99484.11
2018-07-16T16:55:55.422Z,99485.27
2018-07-16T16:58:34.214Z,99485.57
2018-07-16T17:01:08.695Z,99489.64
2018-07-16T17:03:44.300Z,99493.98
2018-07-16T17:06:21.739Z,99487.19
2018-07-16T17:08:54.341Z,99481.84
2018-07-16T17:11:28.629Z,99483.30
2018-07-16T17:14:05.542Z,99484.70
2018-07-16T17:16:38.503Z,99481.28
2018-07-16T17:19:12.744Z,99483.94
2018-07-16T17:21:48.380Z,99480.06
2018-07-16T17:24:22.604Z,99486.53
2018-07-16T17:26:57.072Z,99489.92
2018-07-16T17:29:38.967Z,99486.85
2018-07-16T17:32:11.388Z,99484.50
2018-07-16T17:34:44.714Z,99488.22
2018-07-16T17:37:18.516Z,99490.44
2018-07-16T17:40:02.062Z,99488.85
2018-07-16T17:42:40.389Z,99489.95
2018-07-16T17:45:21.027Z,99494.11
2018-07-16T17:47:59.174Z,99493.53
2018-07-16T17:50:59.286Z,99495.75
2018-07-16T17:53:57.741Z,99491.14
2018-07-16T17:56:36.200Z,99495.95
2018-07-16T17:59:19.804Z,99493.52
2018-07-16T18:02:04.689Z,99496.38
2018-07-16T18:04:48.025Z,99497.54
2018-07-16T18:07:31.547Z,99501.95
2018-07-16T18:10:11.728Z,99498.26
2018-07-16T18:12:49.824Z,99500.39
2018-07-16T18:15:24.615Z,99501.85
2018-07-16T18:18:06.033Z,99502.67
2018-07-16T18:20:46.652Z,99509.50
2018-07-16T18:23:26.804Z,99511.17
2018-07-16T18:26:02.566Z,99510.75
2018-07-16T18:28:40.500Z,99515.42
2018-07-16T18:31:19.131Z,99523.83
2018-07-16T18:33:54.741Z,99517.39
2018-07-16T18:36:35.865Z,99513.68
2018-07-16T18:39:13.370Z,99519.00
2018-07-16T18:41:49.832Z,99521.37
2018-07-16T18:44:24.298Z,99524.79
2018-07-16T18:47:05.060Z,99528.82
2018-07-16T18:49:40.244Z,99531.95
2018-07-16T18:52:22.424Z,99534.47
2018-07-16T18:55:04.639Z,99533.17
2018-07-16T18:57:44.153Z,99533.96
2018-07-16T19:00:18.491Z,99538.61
2018-07-16T19:02:52.052Z,99538.34
2018-07-16T19:05:27.315Z,99542.24
2018-07-16T19:08:00.015Z,99552.61
2018-07-16T19:10:36.801Z,99552.14
2018-07-16T19:13:15.510Z,99555.44
2018-07-16T19:15:54.827Z,99554.96
2018-07-16T19:18:49.006Z,99561.95
2018-07-16T19:21:22.936Z,99565.03
2018-07-16T19:24:00.523Z,99564.41
2018-07-16T19:26:35.522Z,99569.28
2018-07-16T19:29:09.924Z,99575.98
2018-07-16T19:31:45.833Z,99571.93
2018-07-16T19:34:21.915Z,99570.77
2018-07-16T19:36:56.818Z,99574.57
2018-07-16T19:39:31.863Z,99578.52
2018-07-16T19:42:06.764Z,99584.75
2018-07-16T19:44:44.124Z,99586.31
2018-07-16T19:47:17.696Z,99587.77
2018-07-16T19:49:53.407Z,99592.80
2018-07-16T19:52:28.343Z,99597.68
2018-07-16T19:55:01.539Z,99598.97
2018-07-16T19:57:36.152Z,99602.98
2018-07-16T20:00:14.470Z,99600.30
2018-07-16T20:02:49.120Z,99608.95
2018-07-16T20:05:23.446Z,99611.59
2018-07-16T20:08:03.155Z,99615.09
2018-07-16T20:10:40.595Z,99615.39
2018-07-16T20:13:17.276Z,99613.02
2018-07-16T20:15:51.228Z,99622.92
2018-07-16T20:18:25.315Z,99618.91
2018-07-16T20:21:00.887Z,99622.92
2018-07-16T20:23:35.544Z,99629.51
2018-07-16T20:26:09.523Z,99629.69
2018-07-16T20:28:44.828Z,99628.45
2018-07-16T20:31:20.856Z,99624.68
2018-07-16T20:33:55.788Z,99633.63
2018-07-16T20:36:31.019Z,99636.99
2018-07-16T20:39:10.088Z,99639.08
2018-07-16T20:41:44.214Z,99642.24
2018-07-16T20:44:20.525Z,99644.89
2018-07-16T20:47:00.597Z,99646.28
2018-07-16T20:49:40.823Z,99651.08
2018-07-16T20:52:13.963Z,99649.66
2018-07-16T20:54:47.800Z,99650.18
2018-07-16T20:57:21.829Z,99657.27
2018-07-16T20:59:57.846Z,99653.93
2018-07-16T21:02:39.130Z,99658.84
2018-07-16T21:05:20.588Z,99661.27
2018-07-16T21:08:44.932Z,99661.70
2018-07-16T21:11:33.749Z,99671.08
2018-07-16T21:14:14.063Z,99670.56
2018-07-16T21:17:16.036Z,99675.72
2018-07-16T21:19:56.940Z,99679.53
2018-07-16T21:22:43.034Z,99681.32
2018-07-16T21:25:23.184Z,99676.98
2018-07-16T21:28:16.081Z,99670.97
2018-07-16T21:31:18.645Z,99670.47
2018-07-16T21:34:14.105Z,99676.58
2018-07-16T21:36:50.166Z,99682.77
2018-07-16T21:39:54.602Z,99679.27
2018-07-16T21:42:36.651Z,99683.03
2018-07-16T21:45:28.927Z,99678.60
2018-07-16T21:48:18.410Z,99682.02
2018-07-16T21:51:04.606Z,99678.36
2018-07-16T21:53:47.133Z,99674.40
2018-07-16T21:56:31.985Z,99679.88
2018-07-16T21:59:14.421Z,99681.20
2018-07-16T22:01:49.556Z,99689.65
2018-07-16T22:04:26.442Z,99684.44
2018-07-16T22:07:05.861Z,99684.36
2018-07-16T22:09:50.885Z,99688.28
2018-07-16T22:12:47.777Z,99692.45
2018-07-16T22:15:27.248Z,99695.17
2018-07-16T22:18:09.189Z,99701.85
2018-07-16T22:21:03.430Z,99696.87
2018-07-16T22:23:53.652Z,99701.92
2018-07-16T22:26:35.464Z,99703.34
2018-07-16T22:29:15.489Z,99706.05
2018-07-16T22:31:52.901Z,99705.16
2018-07-16T22:34:37.417Z,99703.87
2018-07-16T22:37:16.473Z,99705.10
2018-07-16T22:39:51.758Z,99701.84
2018-07-16T22:42:26.423Z,99706.30
2018-07-16T22:45:05.015Z,99708.42
2018-07-16T22:47:38.661Z,99703.52
2018-07-16T22:50:13.236Z,99705.56
2018-07-16T22:52:49.299Z,99710.93
2018-07-16T22:55:26.845Z,99717.33
2018-07-16T22:58:01.021Z,99717.34
2018-07-16T23:00:35.364Z,99715.17
2018-07-16T23:03:08.945Z,99714.84
2018-07-16T23:05:44.078Z,99719.02
2018-07-16T23:08:19.004Z,99721.86
2018-07-16T23:10:56.590Z,99723.23
2018-07-16T23:13:33.403Z,99726.14
2018-07-16T23:16:07.938Z,99724.55
2018-07-16T23:18:42.393Z,99727.13
2018-07-16T23:21:15.428Z,99723.16
2018-07-16T23:23:48.029Z,99725.52
2018-07-16T23:26:20.838Z,99728.42
2018-07-16T23:28:56.248Z,99734.98
2018-07-16T23:31:30.474Z,99729.69
2018-07-16T23:34:04.350Z,99730.14
2018-07-16T23:36:37.684Z,99730.67
2018-07-16T23:39:13.253Z,99728.22
2018-07-16T23:41:47.129Z,99728.26
2018-07-16T23:44:21.069Z,99728.35
2018-07-16T23:46:54.614Z,99735.03
2018-07-16T23:49:28.518Z,99734.91
2018-07-16T23:52:04.851Z,99733.08
2018-07-16T23:54:37.696Z,99732.31
2018-07-16T23:57:12.724Z,99730.36
2018-07-16T23:59:53.977Z,99731.06
